sensor_id;sensor_type;location;lat;lon;timestamp;P1;durP1;ratioP1;P2;durP2;ratioP2
8279;SDS011;8335;42.646;23.380;2023-03-01T00:00:43;5.63;;;4.07;;
8279;SDS011;8335;42.646;23.380;2023-03-01T00:03:11;6.33;;;4.20;;
8279;SDS011;8335;42.646;23.380;2023-03-01T00:05:44;5.97;;;4.30;;
8279;SDS011;8335;42.646;23.380;2023-03-01T00:08:11;4.90;;;4.07;;
8279;SDS011;8335;42.646;23.380;2023-03-01T00:10:38;5.70;;;4.17;;
8279;SDS011;8335;42.646;23.380;2023-03-01T00:13:05;6.40;;;4.57;;
8279;SDS011;8335;42.646;23.380;2023-03-01T00:15:32;6.20;;;4.47;;
8279;SDS011;8335;42.646;23.380;2023-03-01T00:17:59;6.17;;;4.20;;
8279;SDS011;8335;42.646;23.380;2023-03-01T00:20:26;4.50;;;3.70;;
8279;SDS011;8335;42.646;23.380;2023-03-01T00:22:54;4.47;;;3.93;;
8279;SDS011;8335;42.646;23.380;2023-03-01T00:25:21;6.47;;;4.07;;
8279;SDS011;8335;42.646;23.380;2023-03-01T00:27:48;5.27;;;4.07;;
8279;SDS011;8335;42.646;23.380;2023-03-01T00:30:15;5.80;;;4.20;;
8279;SDS011;8335;42.646;23.380;2023-03-01T00:32:42;5.73;;;4.10;;
8279;SDS011;8335;42.646;23.380;2023-03-01T00:35:08;4.97;;;4.00;;
8279;SDS011;8335;42.646;23.380;2023-03-01T00:37:35;5.40;;;3.83;;
8279;SDS011;8335;42.646;23.380;2023-03-01T00:40:03;5.60;;;3.97;;
8279;SDS011;8335;42.646;23.380;2023-03-01T00:42:32;4.77;;;3.87;;
8279;SDS011;8335;42.646;23.380;2023-03-01T00:44:58;4.63;;;3.70;;
8279;SDS011;8335;42.646;23.380;2023-03-01T00:47:25;4.27;;;3.60;;
8279;SDS011;8335;42.646;23.380;2023-03-01T00:49:54;4.97;;;3.87;;
8279;SDS011;8335;42.646;23.380;2023-03-01T00:52:21;4.97;;;4.07;;
8279;SDS011;8335;42.646;23.380;2023-03-01T00:54:48;4.90;;;3.90;;
8279;SDS011;8335;42.646;23.380;2023-03-01T00:57:16;5.53;;;4.17;;
8279;SDS011;8335;42.646;23.380;2023-03-01T00:59:42;4.93;;;3.63;;
8279;SDS011;8335;42.646;23.380;2023-03-01T01:02:09;4.10;;;3.47;;
8279;SDS011;8335;42.646;23.380;2023-03-01T01:04:36;4.67;;;3.90;;
8279;SDS011;8335;42.646;23.380;2023-03-01T01:07:03;3.60;;;3.13;;
8279;SDS011;8335;42.646;23.380;2023-03-01T01:09:30;3.97;;;3.20;;
8279;SDS011;8335;42.646;23.380;2023-03-01T01:11:57;4.87;;;3.37;;
8279;SDS011;8335;42.646;23.380;2023-03-01T01:14:25;4.80;;;3.60;;
8279;SDS011;8335;42.646;23.380;2023-03-01T01:16:52;4.77;;;4.00;;
8279;SDS011;8335;42.646;23.380;2023-03-01T01:19:19;3.73;;;3.37;;
8279;SDS011;8335;42.646;23.380;2023-03-01T01:21:46;5.10;;;3.57;;
8279;SDS011;8335;42.646;23.380;2023-03-01T01:24:13;5.03;;;3.57;;
8279;SDS011;8335;42.646;23.380;2023-03-01T01:26:40;4.17;;;3.57;;
8279;SDS011;8335;42.646;23.380;2023-03-01T01:29:07;4.13;;;3.00;;
8279;SDS011;8335;42.646;23.380;2023-03-01T01:31:37;3.87;;;3.00;;
8279;SDS011;8335;42.646;23.380;2023-03-01T01:34:06;4.07;;;3.57;;
8279;SDS011;8335;42.646;23.380;2023-03-01T01:36:35;5.03;;;3.40;;
8279;SDS011;8335;42.646;23.380;2023-03-01T01:39:02;3.63;;;3.33;;
8279;SDS011;8335;42.646;23.380;2023-03-01T01:41:29;3.43;;;3.00;;
8279;SDS011;8335;42.646;23.380;2023-03-01T01:44:13;3.40;;;3.00;;
8279;SDS011;8335;42.646;23.380;2023-03-01T01:46:44;3.97;;;3.13;;
8279;SDS011;8335;42.646;23.380;2023-03-01T01:49:17;3.83;;;3.20;;
8279;SDS011;8335;42.646;23.380;2023-03-01T01:51:49;3.60;;;3.30;;
8279;SDS011;8335;42.646;23.380;2023-03-01T01:54:22;3.90;;;3.30;;
8279;SDS011;8335;42.646;23.380;2023-03-01T01:56:55;3.70;;;3.10;;
8279;SDS011;8335;42.646;23.380;2023-03-01T01:59:25;4.33;;;3.40;;
8279;SDS011;8335;42.646;23.380;2023-03-01T02:01:56;3.40;;;3.10;;
8279;SDS011;8335;42.646;23.380;2023-03-01T02:04:26;3.10;;;2.80;;
8279;SDS011;8335;42.646;23.380;2023-03-01T02:06:55;3.20;;;2.87;;
8279;SDS011;8335;42.646;23.380;2023-03-01T02:09:25;3.20;;;2.90;;
8279;SDS011;8335;42.646;23.380;2023-03-01T02:11:53;3.10;;;2.90;;
8279;SDS011;8335;42.646;23.380;2023-03-01T02:14:20;3.50;;;3.10;;
8279;SDS011;8335;42.646;23.380;2023-03-01T02:16:47;3.00;;;2.80;;
8279;SDS011;8335;42.646;23.380;2023-03-01T02:19:20;3.33;;;3.03;;
8279;SDS011;8335;42.646;23.380;2023-03-01T02:21:55;3.50;;;3.20;;
8279;SDS011;8335;42.646;23.380;2023-03-01T02:24:39;3.60;;;3.20;;
8279;SDS011;8335;42.646;23.380;2023-03-01T02:27:16;19.47;;;3.30;;
8279;SDS011;8335;42.646;23.380;2023-03-01T02:29:51;3.37;;;3.07;;
8279;SDS011;8335;42.646;23.380;2023-03-01T02:32:18;3.40;;;3.10;;
8279;SDS011;8335;42.646;23.380;2023-03-01T02:34:50;3.60;;;3.30;;
8279;SDS011;8335;42.646;23.380;2023-03-01T02:37:17;3.30;;;3.00;;
8279;SDS011;8335;42.646;23.380;2023-03-01T02:39:50;3.83;;;3.53;;
8279;SDS011;8335;42.646;23.380;2023-03-01T02:42:23;3.53;;;3.23;;
8279;SDS011;8335;42.646;23.380;2023-03-01T02:44:56;3.73;;;3.37;;
8279;SDS011;8335;42.646;23.380;2023-03-01T02:47:22;4.10;;;3.43;;
8279;SDS011;8335;42.646;23.380;2023-03-01T02:49:49;4.50;;;3.53;;
8279;SDS011;8335;42.646;23.380;2023-03-01T02:52:28;3.53;;;3.23;;
8279;SDS011;8335;42.646;23.380;2023-03-01T02:55:04;4.33;;;3.33;;
8279;SDS011;8335;42.646;23.380;2023-03-01T02:57:35;4.53;;;3.73;;
8279;SDS011;8335;42.646;23.380;2023-03-01T03:00:06;4.10;;;3.70;;
8279;SDS011;8335;42.646;23.380;2023-03-01T03:02:35;4.90;;;4.23;;
8279;SDS011;8335;42.646;23.380;2023-03-01T03:05:07;4.87;;;4.20;;
8279;SDS011;8335;42.646;23.380;2023-03-01T03:07:37;4.70;;;4.20;;
8279;SDS011;8335;42.646;23.380;2023-03-01T03:10:06;6.93;;;4.90;;
8279;SDS011;8335;42.646;23.380;2023-03-01T03:12:36;7.83;;;5.37;;
8279;SDS011;8335;42.646;23.380;2023-03-01T03:15:03;6.50;;;5.20;;
8279;SDS011;8335;42.646;23.380;2023-03-01T03:17:34;5.13;;;4.63;;
8279;SDS011;8335;42.646;23.380;2023-03-01T03:20:01;7.30;;;5.47;;
8279;SDS011;8335;42.646;23.380;2023-03-01T03:22:29;7.17;;;4.90;;
8279;SDS011;8335;42.646;23.380;2023-03-01T03:24:56;6.60;;;4.73;;
8279;SDS011;8335;42.646;23.380;2023-03-01T03:27:22;5.90;;;4.57;;
8279;SDS011;8335;42.646;23.380;2023-03-01T03:29:49;5.80;;;4.60;;
8279;SDS011;8335;42.646;23.380;2023-03-01T03:32:17;4.83;;;4.10;;
8279;SDS011;8335;42.646;23.380;2023-03-01T03:34:44;4.93;;;4.00;;
8279;SDS011;8335;42.646;23.380;2023-03-01T03:37:11;5.03;;;4.07;;
8279;SDS011;8335;42.646;23.380;2023-03-01T03:39:57;4.90;;;3.53;;
8279;SDS011;8335;42.646;23.380;2023-03-01T03:42:25;5.77;;;3.77;;
8279;SDS011;8335;42.646;23.380;2023-03-01T03:44:51;3.90;;;3.33;;
8279;SDS011;8335;42.646;23.380;2023-03-01T03:47:19;4.63;;;3.60;;
8279;SDS011;8335;42.646;23.380;2023-03-01T03:49:46;4.93;;;3.60;;
8279;SDS011;8335;42.646;23.380;2023-03-01T03:52:13;4.07;;;3.40;;
8279;SDS011;8335;42.646;23.380;2023-03-01T03:54:39;3.90;;;3.00;;
8279;SDS011;8335;42.646;23.380;2023-03-01T03:57:06;6.53;;;3.70;;
8279;SDS011;8335;42.646;23.380;2023-03-01T03:59:33;5.00;;;3.50;;
8279;SDS011;8335;42.646;23.380;2023-03-01T04:02:00;4.77;;;3.33;;
8279;SDS011;8335;42.646;23.380;2023-03-01T04:04:28;3.50;;;3.00;;
8279;SDS011;8335;42.646;23.380;2023-03-01T04:06:54;4.97;;;3.00;;
8279;SDS011;8335;42.646;23.380;2023-03-01T04:09:21;4.77;;;3.40;;
8279;SDS011;8335;42.646;23.380;2023-03-01T04:11:48;3.20;;;2.90;;
8279;SDS011;8335;42.646;23.380;2023-03-01T04:14:14;4.07;;;3.03;;
8279;SDS011;8335;42.646;23.380;2023-03-01T04:16:41;3.87;;;3.17;;
8279;SDS011;8335;42.646;23.380;2023-03-01T04:19:08;4.37;;;3.60;;
8279;SDS011;8335;42.646;23.380;2023-03-01T04:21:37;4.67;;;3.73;;
8279;SDS011;8335;42.646;23.380;2023-03-01T04:24:04;3.97;;;3.20;;
8279;SDS011;8335;42.646;23.380;2023-03-01T04:26:31;4.30;;;3.37;;
8279;SDS011;8335;42.646;23.380;2023-03-01T04:28:58;5.03;;;3.30;;
8279;SDS011;8335;42.646;23.380;2023-03-01T04:31:25;4.97;;;3.33;;
8279;SDS011;8335;42.646;23.380;2023-03-01T04:33:52;4.17;;;3.50;;
8279;SDS011;8335;42.646;23.380;2023-03-01T04:36:21;5.93;;;3.33;;
8279;SDS011;8335;42.646;23.380;2023-03-01T04:38:50;4.23;;;3.43;;
8279;SDS011;8335;42.646;23.380;2023-03-01T04:41:18;3.60;;;2.97;;
8279;SDS011;8335;42.646;23.380;2023-03-01T04:43:46;4.60;;;3.30;;
8279;SDS011;8335;42.646;23.380;2023-03-01T04:46:15;4.17;;;3.20;;
8279;SDS011;8335;42.646;23.380;2023-03-01T04:48:43;4.03;;;3.30;;
8279;SDS011;8335;42.646;23.380;2023-03-01T04:51:11;4.40;;;3.50;;
8279;SDS011;8335;42.646;23.380;2023-03-01T04:53:39;6.97;;;4.70;;
8279;SDS011;8335;42.646;23.380;2023-03-01T04:56:07;11.10;;;5.40;;
8279;SDS011;8335;42.646;23.380;2023-03-01T04:58:34;5.80;;;3.97;;
8279;SDS011;8335;42.646;23.380;2023-03-01T05:01:01;4.60;;;3.40;;
8279;SDS011;8335;42.646;23.380;2023-03-01T05:03:40;6.67;;;4.47;;
8279;SDS011;8335;42.646;23.380;2023-03-01T05:06:07;4.43;;;3.67;;
8279;SDS011;8335;42.646;23.380;2023-03-01T05:08:36;4.37;;;3.03;;
8279;SDS011;8335;42.646;23.380;2023-03-01T05:11:03;5.37;;;3.60;;
8279;SDS011;8335;42.646;23.380;2023-03-01T05:13:31;4.47;;;3.03;;
8279;SDS011;8335;42.646;23.380;2023-03-01T05:15:59;3.10;;;2.80;;
8279;SDS011;8335;42.646;23.380;2023-03-01T05:18:28;3.70;;;3.30;;
8279;SDS011;8335;42.646;23.380;2023-03-01T05:21:01;3.93;;;3.40;;
8279;SDS011;8335;42.646;23.380;2023-03-01T05:23:30;3.83;;;3.30;;
8279;SDS011;8335;42.646;23.380;2023-03-01T05:25:57;3.30;;;3.00;;
8279;SDS011;8335;42.646;23.380;2023-03-01T05:28:24;5.13;;;3.47;;
8279;SDS011;8335;42.646;23.380;2023-03-01T05:30:53;5.03;;;3.83;;
8279;SDS011;8335;42.646;23.380;2023-03-01T05:33:20;4.07;;;3.67;;
8279;SDS011;8335;42.646;23.380;2023-03-01T05:35:47;4.03;;;3.37;;
8279;SDS011;8335;42.646;23.380;2023-03-01T05:38:15;4.20;;;3.10;;
8279;SDS011;8335;42.646;23.380;2023-03-01T05:40:42;5.70;;;3.53;;
8279;SDS011;8335;42.646;23.380;2023-03-01T05:43:11;4.20;;;3.43;;
8279;SDS011;8335;42.646;23.380;2023-03-01T05:45:39;6.40;;;3.50;;
8279;SDS011;8335;42.646;23.380;2023-03-01T05:48:08;3.53;;;3.20;;
8279;SDS011;8335;42.646;23.380;2023-03-01T05:50:37;4.27;;;3.30;;
8279;SDS011;8335;42.646;23.380;2023-03-01T05:53:06;4.53;;;3.40;;
8279;SDS011;8335;42.646;23.380;2023-03-01T05:55:35;4.27;;;3.53;;
8279;SDS011;8335;42.646;23.380;2023-03-01T05:58:03;3.60;;;3.10;;
8279;SDS011;8335;42.646;23.380;2023-03-01T06:00:31;3.47;;;3.17;;
8279;SDS011;8335;42.646;23.380;2023-03-01T06:02:59;3.83;;;3.30;;
8279;SDS011;8335;42.646;23.380;2023-03-01T06:05:27;4.10;;;3.10;;
8279;SDS011;8335;42.646;23.380;2023-03-01T06:07:55;3.40;;;2.90;;
8279;SDS011;8335;42.646;23.380;2023-03-01T06:10:24;4.57;;;3.37;;
8279;SDS011;8335;42.646;23.380;2023-03-01T06:12:51;7.10;;;3.30;;
8279;SDS011;8335;42.646;23.380;2023-03-01T06:15:18;7.03;;;3.37;;
8279;SDS011;8335;42.646;23.380;2023-03-01T06:17:45;4.03;;;3.20;;
8279;SDS011;8335;42.646;23.380;2023-03-01T06:20:13;3.53;;;3.10;;
8279;SDS011;8335;42.646;23.380;2023-03-01T06:22:42;4.87;;;3.23;;
8279;SDS011;8335;42.646;23.380;2023-03-01T06:25:10;5.03;;;3.80;;
8279;SDS011;8335;42.646;23.380;2023-03-01T06:27:38;5.40;;;3.90;;
8279;SDS011;8335;42.646;23.380;2023-03-01T06:30:05;4.90;;;3.67;;
8279;SDS011;8335;42.646;23.380;2023-03-01T06:32:34;5.73;;;3.67;;
8279;SDS011;8335;42.646;23.380;2023-03-01T06:35:02;5.77;;;3.77;;
8279;SDS011;8335;42.646;23.380;2023-03-01T06:37:29;4.57;;;3.50;;
8279;SDS011;8335;42.646;23.380;2023-03-01T06:39:57;4.70;;;3.70;;
8279;SDS011;8335;42.646;23.380;2023-03-01T06:42:24;5.40;;;3.83;;
8279;SDS011;8335;42.646;23.380;2023-03-01T06:44:51;4.90;;;3.80;;
8279;SDS011;8335;42.646;23.380;2023-03-01T06:47:17;4.93;;;4.13;;
8279;SDS011;8335;42.646;23.380;2023-03-01T06:49:44;7.77;;;3.83;;
8279;SDS011;8335;42.646;23.380;2023-03-01T06:52:11;6.23;;;3.70;;
8279;SDS011;8335;42.646;23.380;2023-03-01T06:54:38;5.00;;;3.53;;
8279;SDS011;8335;42.646;23.380;2023-03-01T06:57:06;9.03;;;3.60;;
8279;SDS011;8335;42.646;23.380;2023-03-01T06:59:32;4.07;;;3.40;;
8279;SDS011;8335;42.646;23.380;2023-03-01T07:01:59;3.90;;;3.00;;
8279;SDS011;8335;42.646;23.380;2023-03-01T07:04:26;4.43;;;3.50;;
8279;SDS011;8335;42.646;23.380;2023-03-01T07:06:53;4.87;;;2.97;;
8279;SDS011;8335;42.646;23.380;2023-03-01T07:09:20;4.07;;;3.23;;
8279;SDS011;8335;42.646;23.380;2023-03-01T07:11:47;3.40;;;3.00;;
8279;SDS011;8335;42.646;23.380;2023-03-01T07:14:16;3.80;;;3.03;;
8279;SDS011;8335;42.646;23.380;2023-03-01T07:16:42;3.63;;;2.90;;
8279;SDS011;8335;42.646;23.380;2023-03-01T07:19:09;4.57;;;3.07;;
8279;SDS011;8335;42.646;23.380;2023-03-01T07:21:36;3.37;;;2.80;;
8279;SDS011;8335;42.646;23.380;2023-03-01T07:24:04;4.83;;;3.90;;
8279;SDS011;8335;42.646;23.380;2023-03-01T07:26:31;6.13;;;2.87;;
8279;SDS011;8335;42.646;23.380;2023-03-01T07:28:58;5.07;;;2.70;;
8279;SDS011;8335;42.646;23.380;2023-03-01T07:31:26;5.03;;;3.00;;
8279;SDS011;8335;42.646;23.380;2023-03-01T07:33:53;6.23;;;3.10;;
8279;SDS011;8335;42.646;23.380;2023-03-01T07:36:22;2.97;;;2.67;;
8279;SDS011;8335;42.646;23.380;2023-03-01T07:38:49;3.27;;;2.60;;
8279;SDS011;8335;42.646;23.380;2023-03-01T07:41:16;4.80;;;2.50;;
8279;SDS011;8335;42.646;23.380;2023-03-01T07:43:43;2.70;;;2.47;;
8279;SDS011;8335;42.646;23.380;2023-03-01T07:46:09;4.33;;;2.70;;
8279;SDS011;8335;42.646;23.380;2023-03-01T07:48:38;3.60;;;2.70;;
8279;SDS011;8335;42.646;23.380;2023-03-01T07:51:05;4.43;;;2.77;;
8279;SDS011;8335;42.646;23.380;2023-03-01T07:53:33;2.50;;;2.30;;
8279;SDS011;8335;42.646;23.380;2023-03-01T07:56:01;3.83;;;2.77;;
8279;SDS011;8335;42.646;23.380;2023-03-01T07:58:28;4.63;;;2.67;;
8279;SDS011;8335;42.646;23.380;2023-03-01T08:00:55;3.63;;;2.50;;
8279;SDS011;8335;42.646;23.380;2023-03-01T08:03:22;3.47;;;2.87;;
8279;SDS011;8335;42.646;23.380;2023-03-01T08:05:50;3.87;;;2.67;;
8279;SDS011;8335;42.646;23.380;2023-03-01T08:08:16;6.07;;;2.57;;
8279;SDS011;8335;42.646;23.380;2023-03-01T08:10:43;2.87;;;2.23;;
8279;SDS011;8335;42.646;23.380;2023-03-01T08:13:10;3.73;;;2.67;;
8279;SDS011;8335;42.646;23.380;2023-03-01T08:15:37;4.57;;;2.67;;
8279;SDS011;8335;42.646;23.380;2023-03-01T08:18:03;4.60;;;2.87;;
8279;SDS011;8335;42.646;23.380;2023-03-01T08:20:31;4.80;;;3.00;;
8279;SDS011;8335;42.646;23.380;2023-03-01T08:22:59;2.77;;;2.57;;
8279;SDS011;8335;42.646;23.380;2023-03-01T08:25:26;3.60;;;3.30;;
8279;SDS011;8335;42.646;23.380;2023-03-01T08:27:53;4.47;;;3.60;;
8279;SDS011;8335;42.646;23.380;2023-03-01T08:30:20;4.43;;;3.50;;
8279;SDS011;8335;42.646;23.380;2023-03-01T08:32:49;10.40;;;7.33;;
8279;SDS011;8335;42.646;23.380;2023-03-01T08:35:16;5.83;;;4.47;;
8279;SDS011;8335;42.646;23.380;2023-03-01T08:37:43;4.00;;;3.53;;
8279;SDS011;8335;42.646;23.380;2023-03-01T08:40:12;4.57;;;3.70;;
8279;SDS011;8335;42.646;23.380;2023-03-01T08:42:39;3.67;;;3.37;;
8279;SDS011;8335;42.646;23.380;2023-03-01T08:45:08;4.43;;;3.27;;
8279;SDS011;8335;42.646;23.380;2023-03-01T08:47:36;5.23;;;4.23;;
8279;SDS011;8335;42.646;23.380;2023-03-01T08:50:03;6.17;;;3.70;;
8279;SDS011;8335;42.646;23.380;2023-03-01T08:52:31;4.43;;;3.70;;
8279;SDS011;8335;42.646;23.380;2023-03-01T08:54:58;6.60;;;4.20;;
8279;SDS011;8335;42.646;23.380;2023-03-01T08:57:28;4.97;;;3.70;;
8279;SDS011;8335;42.646;23.380;2023-03-01T08:59:54;6.67;;;4.30;;
8279;SDS011;8335;42.646;23.380;2023-03-01T09:02:22;6.47;;;4.00;;
8279;SDS011;8335;42.646;23.380;2023-03-01T09:04:49;5.50;;;3.57;;
8279;SDS011;8335;42.646;23.380;2023-03-01T09:07:15;4.40;;;3.63;;
8279;SDS011;8335;42.646;23.380;2023-03-01T09:09:42;5.90;;;3.70;;
8279;SDS011;8335;42.646;23.380;2023-03-01T09:12:09;10.47;;;5.47;;
8279;SDS011;8335;42.646;23.380;2023-03-01T09:14:37;3.17;;;2.87;;
8279;SDS011;8335;42.646;23.380;2023-03-01T09:17:06;2.97;;;2.67;;
8279;SDS011;8335;42.646;23.380;2023-03-01T09:19:33;5.00;;;3.40;;
8279;SDS011;8335;42.646;23.380;2023-03-01T09:21:59;5.20;;;2.73;;
8279;SDS011;8335;42.646;23.380;2023-03-01T09:24:26;3.90;;;2.37;;
8279;SDS011;8335;42.646;23.380;2023-03-01T09:26:53;5.43;;;2.80;;
8279;SDS011;8335;42.646;23.380;2023-03-01T09:29:21;3.13;;;2.63;;
8279;SDS011;8335;42.646;23.380;2023-03-01T09:31:49;3.53;;;2.30;;
8279;SDS011;8335;42.646;23.380;2023-03-01T09:34:16;3.90;;;2.10;;
8279;SDS011;8335;42.646;23.380;2023-03-01T09:36:48;5.77;;;2.37;;
8279;SDS011;8335;42.646;23.380;2023-03-01T09:39:15;2.57;;;2.37;;
8279;SDS011;8335;42.646;23.380;2023-03-01T09:41:44;3.40;;;2.50;;
8279;SDS011;8335;42.646;23.380;2023-03-01T09:46:58;2.70;;;2.50;;
8279;SDS011;8335;42.646;23.380;2023-03-01T09:49:27;5.80;;;2.50;;
8279;SDS011;8335;42.646;23.380;2023-03-01T09:51:58;4.30;;;2.33;;
8279;SDS011;8335;42.646;23.380;2023-03-01T09:54:29;2.87;;;2.53;;
8279;SDS011;8335;42.646;23.380;2023-03-01T09:57:04;4.03;;;2.50;;
8279;SDS011;8335;42.646;23.380;2023-03-01T09:59:39;2.93;;;2.47;;
8279;SDS011;8335;42.646;23.380;2023-03-01T10:02:32;5.30;;;2.70;;
8279;SDS011;8335;42.646;23.380;2023-03-01T10:05:09;3.47;;;2.20;;
8279;SDS011;8335;42.646;23.380;2023-03-01T10:08:02;2.90;;;2.17;;
8279;SDS011;8335;42.646;23.380;2023-03-01T10:10:46;8.40;;;3.37;;
8279;SDS011;8335;42.646;23.380;2023-03-01T10:13:15;4.87;;;2.87;;
8279;SDS011;8335;42.646;23.380;2023-03-01T10:15:47;4.70;;;3.00;;
8279;SDS011;8335;42.646;23.380;2023-03-01T10:18:22;4.10;;;2.80;;
8279;SDS011;8335;42.646;23.380;2023-03-01T10:20:52;3.77;;;2.90;;
8279;SDS011;8335;42.646;23.380;2023-03-01T10:23:22;4.53;;;2.60;;
8279;SDS011;8335;42.646;23.380;2023-03-01T10:25:54;6.03;;;2.30;;
8279;SDS011;8335;42.646;23.380;2023-03-01T10:28:36;5.67;;;2.70;;
8279;SDS011;8335;42.646;23.380;2023-03-01T10:31:14;6.20;;;2.33;;
8279;SDS011;8335;42.646;23.380;2023-03-01T10:33:46;2.00;;;1.80;;
8279;SDS011;8335;42.646;23.380;2023-03-01T10:36:16;2.83;;;2.27;;
8279;SDS011;8335;42.646;23.380;2023-03-01T10:38:50;2.47;;;2.27;;
8279;SDS011;8335;42.646;23.380;2023-03-01T10:41:19;2.63;;;2.23;;
8279;SDS011;8335;42.646;23.380;2023-03-01T10:43:49;3.23;;;2.70;;
8279;SDS011;8335;42.646;23.380;2023-03-01T10:46:23;4.20;;;2.30;;
8279;SDS011;8335;42.646;23.380;2023-03-01T10:51:43;4.10;;;2.80;;
8279;SDS011;8335;42.646;23.380;2023-03-01T10:54:20;3.50;;;2.80;;
8279;SDS011;8335;42.646;23.380;2023-03-01T10:56:50;3.10;;;2.80;;
8279;SDS011;8335;42.646;23.380;2023-03-01T10:59:21;27.67;;;3.67;;
8279;SDS011;8335;42.646;23.380;2023-03-01T11:04:52;3.60;;;2.70;;
8279;SDS011;8335;42.646;23.380;2023-03-01T11:07:23;3.13;;;2.83;;
8279;SDS011;8335;42.646;23.380;2023-03-01T11:09:50;3.97;;;3.00;;
8279;SDS011;8335;42.646;23.380;2023-03-01T11:12:17;3.63;;;2.90;;
8279;SDS011;8335;42.646;23.380;2023-03-01T11:14:46;3.07;;;2.77;;
8279;SDS011;8335;42.646;23.380;2023-03-01T11:17:15;2.93;;;2.63;;
8279;SDS011;8335;42.646;23.380;2023-03-01T11:19:53;2.70;;;2.47;;
8279;SDS011;8335;42.646;23.380;2023-03-01T11:22:28;3.77;;;2.77;;
8279;SDS011;8335;42.646;23.380;2023-03-01T11:24:59;4.53;;;3.10;;
8279;SDS011;8335;42.646;23.380;2023-03-01T11:27:28;3.40;;;3.10;;
8279;SDS011;8335;42.646;23.380;2023-03-01T11:29:59;3.13;;;2.60;;
8279;SDS011;8335;42.646;23.380;2023-03-01T11:32:31;3.43;;;3.03;;
8279;SDS011;8335;42.646;23.380;2023-03-01T11:35:08;4.50;;;3.30;;
8279;SDS011;8335;42.646;23.380;2023-03-01T11:37:41;3.93;;;2.70;;
8279;SDS011;8335;42.646;23.380;2023-03-01T11:40:21;5.70;;;3.33;;
8279;SDS011;8335;42.646;23.380;2023-03-01T11:42:54;4.33;;;3.90;;
8279;SDS011;8335;42.646;23.380;2023-03-01T11:45:30;5.07;;;3.90;;
8279;SDS011;8335;42.646;23.380;2023-03-01T11:48:12;5.13;;;3.70;;
8279;SDS011;8335;42.646;23.380;2023-03-01T11:50:51;6.33;;;4.23;;
8279;SDS011;8335;42.646;23.380;2023-03-01T11:53:25;4.70;;;3.80;;
8279;SDS011;8335;42.646;23.380;2023-03-01T11:56:09;5.37;;;4.10;;
8279;SDS011;8335;42.646;23.380;2023-03-01T11:58:47;5.03;;;4.03;;
8279;SDS011;8335;42.646;23.380;2023-03-01T12:01:37;7.77;;;4.40;;
8279;SDS011;8335;42.646;23.380;2023-03-01T12:04:18;4.43;;;3.60;;
8279;SDS011;8335;42.646;23.380;2023-03-01T12:06:57;4.70;;;4.07;;
8279;SDS011;8335;42.646;23.380;2023-03-01T12:09:36;6.50;;;3.80;;
8279;SDS011;8335;42.646;23.380;2023-03-01T12:12:16;6.33;;;4.50;;
8279;SDS011;8335;42.646;23.380;2023-03-01T12:15:08;5.20;;;4.20;;
8279;SDS011;8335;42.646;23.380;2023-03-01T12:20:58;4.73;;;3.90;;
8279;SDS011;8335;42.646;23.380;2023-03-01T12:23:43;5.00;;;3.83;;
8279;SDS011;8335;42.646;23.380;2023-03-01T12:26:27;5.87;;;3.77;;
8279;SDS011;8335;42.646;23.380;2023-03-01T12:29:21;4.10;;;3.70;;
8279;SDS011;8335;42.646;23.380;2023-03-01T12:32:10;8.17;;;6.03;;
8279;SDS011;8335;42.646;23.380;2023-03-01T12:34:51;6.23;;;4.80;;
8279;SDS011;8335;42.646;23.380;2023-03-01T12:40:29;6.87;;;3.73;;
8279;SDS011;8335;42.646;23.380;2023-03-01T12:43:07;8.43;;;4.10;;
8279;SDS011;8335;42.646;23.380;2023-03-01T12:45:48;6.77;;;3.73;;
8279;SDS011;8335;42.646;23.380;2023-03-01T12:48:38;4.87;;;4.13;;
8279;SDS011;8335;42.646;23.380;2023-03-01T12:51:14;6.43;;;4.80;;
8279;SDS011;8335;42.646;23.380;2023-03-01T12:53:43;4.57;;;4.13;;
8279;SDS011;8335;42.646;23.380;2023-03-01T12:56:15;5.27;;;3.97;;
8279;SDS011;8335;42.646;23.380;2023-03-01T12:58:48;4.67;;;3.53;;
8279;SDS011;8335;42.646;23.380;2023-03-01T13:01:25;5.20;;;4.17;;
8279;SDS011;8335;42.646;23.380;2023-03-01T13:04:07;4.43;;;3.70;;
8279;SDS011;8335;42.646;23.380;2023-03-01T13:06:44;4.80;;;4.30;;
8279;SDS011;8335;42.646;23.380;2023-03-01T13:09:17;5.80;;;4.23;;
8279;SDS011;8335;42.646;23.380;2023-03-01T13:11:52;5.93;;;3.90;;
8279;SDS011;8335;42.646;23.380;2023-03-01T13:14:42;5.73;;;4.23;;
8279;SDS011;8335;42.646;23.380;2023-03-01T13:19:58;4.70;;;3.97;;
8279;SDS011;8335;42.646;23.380;2023-03-01T13:22:26;6.63;;;4.40;;
8279;SDS011;8335;42.646;23.380;2023-03-01T13:25:11;5.90;;;4.10;;
8279;SDS011;8335;42.646;23.380;2023-03-01T13:27:42;5.20;;;3.80;;
8279;SDS011;8335;42.646;23.380;2023-03-01T13:39:27;4.63;;;3.80;;
8279;SDS011;8335;42.646;23.380;2023-03-01T13:41:57;5.37;;;3.97;;
8279;SDS011;8335;42.646;23.380;2023-03-01T13:44:29;5.03;;;3.53;;
8279;SDS011;8335;42.646;23.380;2023-03-01T13:46:58;6.63;;;3.37;;
8279;SDS011;8335;42.646;23.380;2023-03-01T13:49:31;3.90;;;3.40;;
8279;SDS011;8335;42.646;23.380;2023-03-01T13:52:13;6.10;;;3.40;;
8279;SDS011;8335;42.646;23.380;2023-03-01T13:54:56;6.07;;;3.50;;
8279;SDS011;8335;42.646;23.380;2023-03-01T13:57:24;5.17;;;3.70;;
8279;SDS011;8335;42.646;23.380;2023-03-01T13:59:56;4.77;;;3.80;;
8279;SDS011;8335;42.646;23.380;2023-03-01T14:02:23;4.70;;;3.80;;
8279;SDS011;8335;42.646;23.380;2023-03-01T14:04:56;5.67;;;4.20;;
8279;SDS011;8335;42.646;23.380;2023-03-01T14:07:23;7.07;;;3.90;;
8279;SDS011;8335;42.646;23.380;2023-03-01T14:09:52;5.00;;;3.80;;
8279;SDS011;8335;42.646;23.380;2023-03-01T14:12:32;4.73;;;3.50;;
8279;SDS011;8335;42.646;23.380;2023-03-01T14:15:09;4.20;;;3.47;;
8279;SDS011;8335;42.646;23.380;2023-03-01T14:17:55;5.13;;;3.70;;
8279;SDS011;8335;42.646;23.380;2023-03-01T14:20:30;5.43;;;3.20;;
8279;SDS011;8335;42.646;23.380;2023-03-01T14:23:01;5.50;;;3.13;;
8279;SDS011;8335;42.646;23.380;2023-03-01T14:25:35;5.43;;;3.47;;
8279;SDS011;8335;42.646;23.380;2023-03-01T14:28:04;5.73;;;3.37;;
8279;SDS011;8335;42.646;23.380;2023-03-01T14:30:42;4.37;;;3.57;;
8279;SDS011;8335;42.646;23.380;2023-03-01T14:33:21;4.07;;;3.00;;
8279;SDS011;8335;42.646;23.380;2023-03-01T14:35:57;5.20;;;3.13;;
8279;SDS011;8335;42.646;23.380;2023-03-01T14:38:30;6.83;;;3.57;;
8279;SDS011;8335;42.646;23.380;2023-03-01T14:41:00;6.67;;;3.70;;
8279;SDS011;8335;42.646;23.380;2023-03-01T14:43:29;4.57;;;3.10;;
8279;SDS011;8335;42.646;23.380;2023-03-01T14:45:58;5.00;;;2.90;;
8279;SDS011;8335;42.646;23.380;2023-03-01T14:48:25;4.43;;;2.80;;
8279;SDS011;8335;42.646;23.380;2023-03-01T14:50:54;7.80;;;3.20;;
8279;SDS011;8335;42.646;23.380;2023-03-01T14:53:22;5.23;;;3.60;;
8279;SDS011;8335;42.646;23.380;2023-03-01T14:55:52;9.23;;;3.20;;
8279;SDS011;8335;42.646;23.380;2023-03-01T14:58:20;8.20;;;3.57;;
8279;SDS011;8335;42.646;23.380;2023-03-01T15:00:50;10.50;;;4.07;;
8279;SDS011;8335;42.646;23.380;2023-03-01T15:03:24;5.30;;;3.90;;
8279;SDS011;8335;42.646;23.380;2023-03-01T15:05:54;5.37;;;3.87;;
8279;SDS011;8335;42.646;23.380;2023-03-01T15:08:22;3.80;;;3.40;;
8279;SDS011;8335;42.646;23.380;2023-03-01T15:11:02;5.67;;;3.60;;
8279;SDS011;8335;42.646;23.380;2023-03-01T15:13:31;5.57;;;4.10;;
8279;SDS011;8335;42.646;23.380;2023-03-01T15:16:05;7.40;;;4.20;;
8279;SDS011;8335;42.646;23.380;2023-03-01T15:18:36;6.57;;;4.00;;
8279;SDS011;8335;42.646;23.380;2023-03-01T15:21:09;7.13;;;4.20;;
8279;SDS011;8335;42.646;23.380;2023-03-01T15:23:47;7.90;;;4.30;;
8279;SDS011;8335;42.646;23.380;2023-03-01T15:26:21;8.27;;;4.10;;
8279;SDS011;8335;42.646;23.380;2023-03-01T15:28:54;6.20;;;3.87;;
8279;SDS011;8335;42.646;23.380;2023-03-01T15:31:25;4.97;;;3.43;;
8279;SDS011;8335;42.646;23.380;2023-03-01T15:34:08;5.93;;;4.20;;
8279;SDS011;8335;42.646;23.380;2023-03-01T15:36:41;5.40;;;4.00;;
8279;SDS011;8335;42.646;23.380;2023-03-01T15:42:02;5.73;;;4.20;;
8279;SDS011;8335;42.646;23.380;2023-03-01T15:44:30;7.43;;;4.77;;
8279;SDS011;8335;42.646;23.380;2023-03-01T15:46:59;6.67;;;4.60;;
8279;SDS011;8335;42.646;23.380;2023-03-01T15:49:30;7.07;;;4.50;;